createdAt,value
2019-02-15T00:00:39.042Z,1028.56
2019-02-15T00:01:39.051Z,1028.52
2019-02-15T00:02:39.031Z,1028.53
2019-02-15T00:03:39.005Z,1028.50
2019-02-15T00:04:39.023Z,1028.50
2019-02-15T00:05:39.003Z,1028.50
2019-02-15T00:06:38.991Z,1028.51
2019-02-15T00:07:38.974Z,1028.45
2019-02-15T00:08:38.952Z,1028.50
2019-02-15T00:09:38.940Z,1028.45
2019-02-15T00:10:38.952Z,1028.48
2019-02-15T00:11:38.925Z,1028.41
2019-02-15T00:12:38.906Z,1028.44
2019-02-15T00:13:38.896Z,1028.43
2019-02-15T00:14:38.886Z,1028.46
2019-02-15T00:15:38.893Z,1028.39
2019-02-15T00:16:38.864Z,1028.46
2019-02-15T00:17:38.865Z,1028.46
2019-02-15T00:18:38.853Z,1028.40
2019-02-15T00:19:38.832Z,1028.43
2019-02-15T00:20:38.844Z,1028.42
2019-02-15T00:21:38.810Z,1028.42
2019-02-15T00:22:38.804Z,1028.41
2019-02-15T00:23:38.787Z,1028.41
2019-02-15T00:24:38.778Z,1028.43
2019-02-15T00:25:38.800Z,1028.44
2019-02-15T00:26:38.755Z,1028.40
2019-02-15T00:27:38.751Z,1028.42
2019-02-15T00:28:38.735Z,1028.42
2019-02-15T00:29:38.741Z,1028.38
2019-02-15T00:30:38.732Z,1028.38
2019-02-15T00:31:38.714Z,1028.38
2019-02-15T00:32:38.692Z,1028.36
2019-02-15T00:33:38.687Z,1028.38
2019-02-15T00:34:38.684Z,1028.39
2019-02-15T00:35:38.689Z,1028.38
2019-02-15T00:36:38.666Z,1028.40
2019-02-15T00:37:38.635Z,1028.35
2019-02-15T00:38:38.632Z,1028.37
2019-02-15T00:39:38.618Z,1028.41
2019-02-15T00:40:38.627Z,1028.43
2019-02-15T00:41:38.604Z,1028.43
2019-02-15T00:42:38.589Z,1028.44
2019-02-15T00:43:38.576Z,1028.41
2019-02-15T00:44:38.567Z,1028.45
2019-02-15T00:45:38.552Z,1028.46
2019-02-15T00:46:38.567Z,1028.47
2019-02-15T00:47:38.534Z,1028.43
2019-02-15T00:48:38.520Z,1028.46
2019-02-15T00:49:38.510Z,1028.44
2019-02-15T00:50:38.511Z,1028.48
2019-02-15T00:51:38.518Z,1028.43
2019-02-15T00:52:38.488Z,1028.44
2019-02-15T00:53:38.463Z,1028.39
2019-02-15T00:54:38.460Z,1028.39
2019-02-15T00:55:38.457Z,1028.37
2019-02-15T00:56:38.435Z,1028.38
2019-02-15T00:57:38.452Z,1028.38
2019-02-15T00:58:38.419Z,1028.36
2019-02-15T00:59:38.406Z,1028.39
2019-02-15T01:00:38.395Z,1028.36
2019-02-15T01:01:38.392Z,1028.31
2019-02-15T01:02:48.459Z,1028.34
2019-02-15T01:03:38.358Z,1028.33
2019-02-15T01:04:38.348Z,1028.26
2019-02-15T01:05:38.334Z,1028.27
2019-02-15T01:06:38.454Z,1028.23
2019-02-15T01:07:38.674Z,1028.28
2019-02-15T01:08:38.305Z,1028.25
2019-02-15T01:09:38.294Z,1028.30
2019-02-15T01:10:38.287Z,1028.30
2019-02-15T01:11:38.278Z,1028.24
2019-02-15T01:12:38.293Z,1028.26
2019-02-15T01:13:38.258Z,1028.27
2019-02-15T01:14:38.246Z,1028.22
2019-02-15T01:15:38.234Z,1028.25
2019-02-15T01:16:38.219Z,1028.24
2019-02-15T01:17:38.263Z,1028.25
2019-02-15T01:18:38.224Z,1028.24
2019-02-15T01:19:38.186Z,1028.21
2019-02-15T01:20:38.174Z,1028.26
2019-02-15T01:21:38.168Z,1028.24
2019-02-15T01:22:38.167Z,1028.25
2019-02-15T01:23:47.981Z,1028.14
2019-02-15T01:24:38.134Z,1028.21
2019-02-15T01:25:38.125Z,1028.23
2019-02-15T01:26:38.112Z,1028.20
2019-02-15T01:27:38.120Z,1028.18
2019-02-15T01:28:38.092Z,1028.18
2019-02-15T01:29:38.094Z,1028.16
2019-02-15T01:30:38.071Z,1028.17
2019-02-15T01:31:38.057Z,1028.15
2019-02-15T01:32:38.071Z,1028.18
2019-02-15T01:33:38.040Z,1028.15
2019-02-15T01:34:38.026Z,1028.15
2019-02-15T01:35:38.022Z,1028.16
2019-02-15T01:36:38.011Z,1028.11
2019-02-15T01:37:37.991Z,1028.13
2019-02-15T01:38:38.001Z,1028.09
2019-02-15T01:39:37.972Z,1028.10
2019-02-15T01:40:37.980Z,1028.09
2019-02-15T01:41:37.953Z,1028.07
2019-02-15T01:42:37.940Z,1028.07
2019-02-15T01:43:40.003Z,1028.02
2019-02-15T01:44:37.920Z,1028.04
2019-02-15T01:45:37.905Z,1028.06
2019-02-15T01:46:37.898Z,1028.01
2019-02-15T01:47:37.887Z,1028.05
2019-02-15T01:48:37.906Z,1027.99
2019-02-15T01:49:37.869Z,1028.03
2019-02-15T01:50:37.858Z,1028.03
2019-02-15T01:51:45.430Z,1028.03
2019-02-15T01:52:37.837Z,1028.06
2019-02-15T01:53:37.842Z,1028.02
2019-02-15T01:54:37.807Z,1027.99
2019-02-15T01:55:37.803Z,1027.96
2019-02-15T01:56:37.787Z,1028.00
2019-02-15T01:57:37.775Z,1027.94
2019-02-15T01:58:37.789Z,1028.00
2019-02-15T01:59:37.756Z,1027.95
2019-02-15T02:00:37.745Z,1027.95
2019-02-15T02:01:37.736Z,1027.97
2019-02-15T02:02:37.728Z,1027.90
2019-02-15T02:03:37.749Z,1027.99
2019-02-15T02:04:37.700Z,1027.97
2019-02-15T02:05:37.698Z,1027.94
2019-02-15T02:06:37.690Z,1027.92
2019-02-15T02:07:37.674Z,1027.96
2019-02-15T02:08:37.682Z,1027.92
2019-02-15T02:09:37.648Z,1027.89
2019-02-15T02:10:37.640Z,1027.86
2019-02-15T02:11:37.635Z,1027.88
2019-02-15T02:12:37.617Z,1027.85
2019-02-15T02:13:37.621Z,1027.86
2019-02-15T02:14:37.594Z,1027.81
2019-02-15T02:15:37.598Z,1027.84
2019-02-15T02:16:37.576Z,1027.80
2019-02-15T02:17:37.573Z,1027.81
2019-02-15T02:18:37.580Z,1027.82
2019-02-15T02:19:37.542Z,1027.81
2019-02-15T02:20:37.529Z,1027.77
2019-02-15T02:21:37.518Z,1027.71
2019-02-15T02:22:37.513Z,1027.73
2019-02-15T02:23:37.522Z,1027.73
2019-02-15T02:24:37.493Z,1027.68
2019-02-15T02:25:37.481Z,1027.71
2019-02-15T02:26:37.468Z,1027.70
2019-02-15T02:27:37.458Z,1027.67
2019-02-15T02:28:37.470Z,1027.69
2019-02-15T02:29:37.445Z,1027.72
2019-02-15T02:30:37.429Z,1027.68
2019-02-15T02:31:37.413Z,1027.67
2019-02-15T02:32:37.405Z,1027.66
2019-02-15T02:33:37.393Z,1027.62
2019-02-15T02:34:37.418Z,1027.65
2019-02-15T02:35:37.373Z,1027.66
2019-02-15T02:36:37.410Z,1027.61
2019-02-15T02:37:37.368Z,1027.60
2019-02-15T02:38:37.356Z,1027.65
2019-02-15T02:39:37.325Z,1027.63
2019-02-15T02:40:37.316Z,1027.66
2019-02-15T02:41:37.309Z,1027.65
2019-02-15T02:42:37.303Z,1027.67
2019-02-15T02:43:37.312Z,1027.66
2019-02-15T02:44:37.275Z,1027.70
2019-02-15T02:45:37.265Z,1027.63
2019-02-15T02:46:37.254Z,1027.70
2019-02-15T02:47:37.241Z,1027.69
2019-02-15T02:48:37.259Z,1027.65
2019-02-15T02:49:37.224Z,1027.65
2019-02-15T02:50:37.214Z,1027.61
2019-02-15T02:51:37.206Z,1027.59
2019-02-15T02:52:37.192Z,1027.60
2019-02-15T02:53:37.205Z,1027.61
2019-02-15T02:54:37.166Z,1027.63
2019-02-15T02:55:37.163Z,1027.56
2019-02-15T02:56:37.147Z,1027.63
2019-02-15T02:57:37.135Z,1027.64
2019-02-15T02:58:37.128Z,1027.61
2019-02-15T02:59:37.131Z,1027.64
2019-02-15T03:00:37.131Z,1027.59
2019-02-15T03:01:37.089Z,1027.58
2019-02-15T03:02:37.083Z,1027.58
2019-02-15T03:03:37.070Z,1027.56
2019-02-15T03:04:37.084Z,1027.59
2019-02-15T03:05:37.055Z,1027.56
2019-02-15T03:06:37.043Z,1027.53
2019-02-15T03:07:37.028Z,1027.54
2019-02-15T03:08:37.025Z,1027.56
2019-02-15T03:09:37.022Z,1027.57
2019-02-15T03:10:37.009Z,1027.50
2019-02-15T03:11:36.981Z,1027.53
2019-02-15T03:12:36.986Z,1027.53
2019-02-15T03:13:36.966Z,1027.54
2019-02-15T03:14:36.968Z,1027.53
2019-02-15T03:15:36.942Z,1027.53
2019-02-15T03:16:36.935Z,1027.52
2019-02-15T03:17:36.926Z,1027.54
2019-02-15T03:18:36.914Z,1027.53
2019-02-15T03:19:36.926Z,1027.50
2019-02-15T03:20:36.887Z,1027.50
2019-02-15T03:21:36.877Z,1027.48
2019-02-15T03:22:36.871Z,1027.50
2019-02-15T03:23:36.852Z,1027.46
2019-02-15T03:24:36.847Z,1027.50
2019-02-15T03:25:36.855Z,1027.49
2019-02-15T03:26:36.830Z,1027.48
2019-02-15T03:27:36.818Z,1027.43
2019-02-15T03:28:36.813Z,1027.48
2019-02-15T03:29:36.788Z,1027.45
2019-02-15T03:30:36.805Z,1027.45
2019-02-15T03:31:36.831Z,1027.46
2019-02-15T03:32:36.760Z,1027.46
2019-02-15T03:33:36.753Z,1027.48
2019-02-15T03:34:36.735Z,1027.44
2019-02-15T03:35:36.743Z,1027.44
2019-02-15T03:36:36.715Z,1027.42
2019-02-15T03:37:36.704Z,1027.42
2019-02-15T03:38:36.695Z,1027.44
2019-02-15T03:39:36.680Z,1027.39
2019-02-15T03:40:36.693Z,1027.46
2019-02-15T03:41:36.666Z,1027.38
2019-02-15T03:42:36.648Z,1027.41
2019-02-15T03:43:36.639Z,1027.40
2019-02-15T03:44:36.631Z,1027.40
2019-02-15T03:45:36.640Z,1027.40
2019-02-15T03:46:36.617Z,1027.41
2019-02-15T03:47:36.594Z,1027.39
2019-02-15T03:48:36.590Z,1027.35
2019-02-15T03:49:36.575Z,1027.36
2019-02-15T03:50:36.560Z,1027.36
2019-02-15T03:51:36.575Z,1027.38
2019-02-15T03:52:36.545Z,1027.37
2019-02-15T03:53:36.532Z,1027.36
2019-02-15T03:54:36.536Z,1027.36
2019-02-15T03:55:36.508Z,1027.36
2019-02-15T03:56:45.505Z,1027.34
2019-02-15T03:57:36.488Z,1027.36
2019-02-15T03:58:36.480Z,1027.34
2019-02-15T03:59:36.462Z,1027.35
2019-02-15T04:00:36.451Z,1027.33
2019-02-15T04:01:36.456Z,1027.31
2019-02-15T04:02:36.436Z,1027.34
2019-02-15T04:03:36.428Z,1027.37
2019-02-15T04:04:36.411Z,1027.35
2019-02-15T04:05:36.402Z,1027.38
2019-02-15T04:06:36.405Z,1027.39
2019-02-15T04:07:36.381Z,1027.35
2019-02-15T04:08:36.362Z,1027.36
2019-02-15T04:09:36.373Z,1027.37
2019-02-15T04:10:36.348Z,1027.43
2019-02-15T04:11:36.351Z,1027.41
2019-02-15T04:12:36.322Z,1027.41
2019-02-15T04:13:36.314Z,1027.40
2019-02-15T04:14:36.299Z,1027.40
2019-02-15T04:15:36.287Z,1027.42
2019-02-15T04:16:36.320Z,1027.38
2019-02-15T04:17:36.264Z,1027.39
2019-02-15T04:18:36.285Z,1027.40
2019-02-15T04:19:36.247Z,1027.42
2019-02-15T04:20:36.237Z,1027.43
2019-02-15T04:21:36.227Z,1027.40
2019-02-15T04:22:36.233Z,1027.43
2019-02-15T04:23:36.209Z,1027.43
2019-02-15T04:24:36.192Z,1027.41
2019-02-15T04:25:36.175Z,1027.40
2019-02-15T04:26:36.174Z,1027.35
2019-02-15T04:27:36.172Z,1027.38
2019-02-15T04:28:36.157Z,1027.41
2019-02-15T04:29:36.132Z,1027.45
2019-02-15T04:30:36.122Z,1027.38
2019-02-15T04:31:36.136Z,1027.45
2019-02-15T04:32:36.126Z,1027.41
2019-02-15T04:33:36.089Z,1027.44
2019-02-15T04:34:36.087Z,1027.40
2019-02-15T04:35:36.065Z,1027.39
2019-02-15T04:36:36.058Z,1027.37
2019-02-15T04:37:36.068Z,1027.37
2019-02-15T04:38:36.037Z,1027.37
2019-02-15T04:39:36.022Z,1027.39
2019-02-15T04:40:36.023Z,1027.37
2019-02-15T04:41:36.014Z,1027.38
2019-02-15T04:42:36.010Z,1027.42
2019-02-15T04:43:35.983Z,1027.34
2019-02-15T04:44:42.546Z,1027.38
2019-02-15T04:45:36.954Z,1027.35
2019-02-15T04:46:35.951Z,1027.38
2019-02-15T04:47:35.954Z,1027.38
2019-02-15T04:48:35.925Z,1027.38
2019-02-15T04:49:35.916Z,1027.37
2019-02-15T04:50:43.449Z,1027.33
2019-02-15T04:51:35.895Z,1027.35
2019-02-15T04:52:35.907Z,1027.35
2019-02-15T04:53:35.872Z,1027.33
2019-02-15T04:54:35.860Z,1027.34
2019-02-15T04:55:35.849Z,1027.36
2019-02-15T04:56:35.838Z,1027.35
2019-02-15T04:57:35.834Z,1027.36
2019-02-15T04:58:35.838Z,1027.35
2019-02-15T04:59:35.886Z,1027.33
2019-02-15T05:00:35.795Z,1027.33
2019-02-15T05:01:35.790Z,1027.31
2019-02-15T05:02:35.774Z,1027.31
2019-02-15T05:03:35.780Z,1027.28
2019-02-15T05:04:35.763Z,1027.26
2019-02-15T05:05:35.741Z,1027.26
2019-02-15T05:06:35.776Z,1027.33
2019-02-15T05:07:35.724Z,1027.35
2019-02-15T05:08:35.744Z,1027.25
2019-02-15T05:09:35.706Z,1027.25
2019-02-15T05:10:35.688Z,1027.27
2019-02-15T05:11:43.210Z,1027.28
2019-02-15T05:12:35.662Z,1027.28
2019-02-15T05:13:35.651Z,1027.32
2019-02-15T05:14:35.665Z,1027.27
2019-02-15T05:15:35.631Z,1027.26
2019-02-15T05:16:35.625Z,1027.29
2019-02-15T05:17:35.642Z,1027.27
2019-02-15T05:18:35.608Z,1027.24
2019-02-15T05:19:35.608Z,1027.27
2019-02-15T05:20:35.583Z,1027.27
2019-02-15T05:21:35.571Z,1027.27
2019-02-15T05:22:35.573Z,1027.26
2019-02-15T05:23:35.564Z,1027.22
2019-02-15T05:24:35.552Z,1027.27
2019-02-15T05:25:35.524Z,1027.27
2019-02-15T05:26:35.522Z,1027.27
2019-02-15T05:27:35.502Z,1027.26
2019-02-15T05:28:35.516Z,1027.26
2019-02-15T05:29:35.517Z,1027.27
2019-02-15T05:30:35.470Z,1027.25
2019-02-15T05:31:35.469Z,1027.19
2019-02-15T05:32:35.448Z,1027.21
2019-02-15T05:33:35.769Z,1027.24
2019-02-15T05:34:35.446Z,1027.19
2019-02-15T05:35:35.433Z,1027.21
2019-02-15T05:36:35.410Z,1027.25
2019-02-15T05:37:35.402Z,1027.21
2019-02-15T05:38:35.386Z,1027.23
2019-02-15T05:39:35.394Z,1027.29
2019-02-15T05:40:35.368Z,1027.21
2019-02-15T05:41:35.359Z,1027.24
2019-02-15T05:42:35.353Z,1027.28
2019-02-15T05:43:35.336Z,1027.33
2019-02-15T05:44:35.343Z,1027.28
2019-02-15T05:45:35.318Z,1027.28
2019-02-15T05:46:35.302Z,1027.29
2019-02-15T05:47:35.289Z,1027.26
2019-02-15T05:48:35.289Z,1027.24
2019-02-15T05:49:35.266Z,1027.27
2019-02-15T05:50:35.274Z,1027.25
2019-02-15T05:51:35.245Z,1027.25
2019-02-15T05:52:35.242Z,1027.26
2019-02-15T05:53:35.223Z,1027.23
2019-02-15T05:54:35.224Z,1027.24
2019-02-15T05:55:35.233Z,1027.26
2019-02-15T05:56:35.193Z,1027.30
2019-02-15T05:57:35.190Z,1027.33
2019-02-15T05:58:35.174Z,1027.32
2019-02-15T05:59:35.159Z,1027.32
2019-02-15T06:00:37.264Z,1027.36
2019-02-15T06:01:35.142Z,1027.39
2019-02-15T06:02:35.173Z,1027.41
2019-02-15T06:03:35.120Z,1027.39
2019-02-15T06:04:35.120Z,1027.37
2019-02-15T06:05:35.123Z,1027.37
2019-02-15T06:06:35.083Z,1027.37
2019-02-15T06:07:35.088Z,1027.42
2019-02-15T06:08:35.089Z,1027.43
2019-02-15T06:09:35.051Z,1027.40
2019-02-15T06:10:35.065Z,1027.36
2019-02-15T06:11:35.031Z,1027.34
2019-02-15T06:12:35.020Z,1027.44
2019-02-15T06:13:35.006Z,1027.38
2019-02-15T06:14:35.036Z,1027.32
2019-02-15T06:15:35.044Z,1027.37
2019-02-15T06:16:34.994Z,1027.36
2019-02-15T06:17:34.962Z,1027.33
2019-02-15T06:18:34.951Z,1027.36
2019-02-15T06:19:34.948Z,1027.37
2019-02-15T06:20:34.930Z,1027.36
2019-02-15T06:21:34.958Z,1027.46
2019-02-15T06:22:34.910Z,1027.42
2019-02-15T06:23:34.900Z,1027.34
2019-02-15T06:24:34.888Z,1027.41
2019-02-15T06:25:34.885Z,1027.42
2019-02-15T06:26:34.895Z,1027.38
2019-02-15T06:27:34.862Z,1027.37
2019-02-15T06:28:34.852Z,1027.44
2019-02-15T06:29:34.831Z,1027.44
2019-02-15T06:30:34.835Z,1027.44
2019-02-15T06:31:34.828Z,1027.43
2019-02-15T06:32:34.802Z,1027.45
2019-02-15T06:33:34.791Z,1027.45
2019-02-15T06:34:34.779Z,1027.47
2019-02-15T06:35:34.773Z,1027.47
2019-02-15T06:36:34.782Z,1027.45
2019-02-15T06:37:34.748Z,1027.45
2019-02-15T06:38:35.288Z,1027.48
2019-02-15T06:39:34.726Z,1027.44
2019-02-15T06:40:34.715Z,1027.46
2019-02-15T06:41:34.721Z,1027.45
2019-02-15T06:42:34.703Z,1027.47
2019-02-15T06:43:34.735Z,1027.49
2019-02-15T06:44:34.668Z,1027.48
2019-02-15T06:45:34.661Z,1027.49
2019-02-15T06:46:34.647Z,1027.53
2019-02-15T06:47:34.658Z,1027.52
2019-02-15T06:48:34.635Z,1027.55
2019-02-15T06:49:34.621Z,1027.55
2019-02-15T06:50:34.612Z,1027.55
2019-02-15T06:51:34.590Z,1027.54
2019-02-15T06:52:34.623Z,1027.53
2019-02-15T06:53:34.587Z,1027.53
2019-02-15T06:54:34.559Z,1027.53
2019-02-15T06:55:34.550Z,1027.51
2019-02-15T06:56:34.541Z,1027.60
2019-02-15T06:57:34.563Z,1027.56
2019-02-15T06:58:34.516Z,1027.60
2019-02-15T06:59:34.504Z,1027.64
2019-02-15T07:00:34.493Z,1027.58
2019-02-15T07:01:34.498Z,1027.59
2019-02-15T07:02:34.492Z,1027.61
2019-02-15T07:03:34.464Z,1027.58
2019-02-15T07:04:34.453Z,1027.64
2019-02-15T07:05:34.578Z,1027.59
2019-02-15T07:06:34.584Z,1027.60
2019-02-15T07:07:34.580Z,1027.61
2019-02-15T07:08:34.412Z,1027.58
2019-02-15T07:09:34.395Z,1027.60
2019-02-15T07:10:34.385Z,1027.63
2019-02-15T07:11:34.372Z,1027.63
2019-02-15T07:12:34.395Z,1027.67
2019-02-15T07:13:34.363Z,1027.64
2019-02-15T07:14:34.339Z,1027.63
2019-02-15T07:15:34.330Z,1027.63
2019-02-15T07:16:34.321Z,1027.67
2019-02-15T07:17:34.347Z,1027.66
2019-02-15T07:18:34.308Z,1027.64
2019-02-15T07:19:34.286Z,1027.62
2019-02-15T07:20:34.271Z,1027.66
2019-02-15T07:21:34.263Z,1027.69
2019-02-15T07:22:34.271Z,1027.71
2019-02-15T07:23:34.244Z,1027.71
2019-02-15T07:24:34.235Z,1027.71
2019-02-15T07:25:34.221Z,1027.75
2019-02-15T07:26:34.208Z,1027.77
2019-02-15T07:27:34.225Z,1027.78
2019-02-15T07:28:34.184Z,1027.75
2019-02-15T07:29:34.198Z,1027.78
2019-02-15T07:30:34.166Z,1027.83
2019-02-15T07:31:34.150Z,1027.80
2019-02-15T07:32:34.167Z,1027.83
2019-02-15T07:33:34.134Z,1027.83
2019-02-15T07:34:34.119Z,1027.78
2019-02-15T07:35:34.109Z,1027.83
2019-02-15T07:36:34.106Z,1027.84
2019-02-15T07:37:34.095Z,1027.80
2019-02-15T07:38:34.094Z,1027.81
2019-02-15T07:39:34.088Z,1027.76
2019-02-15T07:40:34.054Z,1027.85
2019-02-15T07:41:34.043Z,1027.74
2019-02-15T07:42:34.033Z,1027.73
2019-02-15T07:43:34.045Z,1027.76
2019-02-15T07:44:34.016Z,1027.75
2019-02-15T07:45:42.480Z,1027.75
2019-02-15T07:46:34.988Z,1027.75
2019-02-15T07:47:33.979Z,1027.72
2019-02-15T07:48:34.008Z,1027.75
2019-02-15T07:49:33.957Z,1027.77
2019-02-15T07:50:33.954Z,1027.76
2019-02-15T07:51:33.948Z,1027.78
2019-02-15T07:52:33.936Z,1027.74
2019-02-15T07:53:33.913Z,1027.79
2019-02-15T07:54:33.923Z,1027.77
2019-02-15T07:55:33.899Z,1027.72
2019-02-15T07:56:33.887Z,1027.72
2019-02-15T07:57:34.042Z,1027.73
2019-02-15T07:58:33.862Z,1027.73
2019-02-15T07:59:33.886Z,1027.71
2019-02-15T08:00:33.840Z,1027.74
2019-02-15T08:01:33.829Z,1027.77
2019-02-15T08:02:33.814Z,1027.74
2019-02-15T08:03:33.823Z,1027.71
2019-02-15T08:04:33.815Z,1027.75
2019-02-15T08:05:33.791Z,1027.74
2019-02-15T08:06:33.812Z,1027.77
2019-02-15T08:07:33.762Z,1027.75
2019-02-15T08:08:33.758Z,1027.72
2019-02-15T08:09:33.759Z,1027.71
2019-02-15T08:10:33.730Z,1027.71
2019-02-15T08:11:33.726Z,1027.64
2019-02-15T08:12:33.708Z,1027.64
2019-02-15T08:13:33.701Z,1027.65
2019-02-15T08:14:33.710Z,1027.64
2019-02-15T08:15:36.145Z,1027.62
2019-02-15T08:16:33.668Z,1027.63
2019-02-15T08:17:33.654Z,1027.57
2019-02-15T08:18:33.646Z,1027.60
2019-02-15T08:19:33.673Z,1027.57
2019-02-15T08:20:33.621Z,1027.59
2019-02-15T08:21:33.652Z,1027.57
2019-02-15T08:22:33.610Z,1027.53
2019-02-15T08:23:33.597Z,1027.58
2019-02-15T08:24:33.582Z,1027.55
2019-02-15T08:25:33.593Z,1027.56
2019-02-15T08:26:33.562Z,1027.58
2019-02-15T08:27:33.547Z,1027.59
2019-02-15T08:28:33.541Z,1027.57
2019-02-15T08:29:33.529Z,1027.58
2019-02-15T08:30:33.543Z,1027.55
2019-02-15T08:31:33.505Z,1027.55
2019-02-15T08:32:34.616Z,1027.58
2019-02-15T08:33:33.483Z,1027.56
2019-02-15T08:34:33.475Z,1027.48
2019-02-15T08:35:33.499Z,1027.53
2019-02-15T08:36:33.452Z,1027.51
2019-02-15T08:37:33.442Z,1027.50
2019-02-15T08:38:33.431Z,1027.48
2019-02-15T08:39:33.421Z,1027.50
2019-02-15T08:40:33.440Z,1027.50
2019-02-15T08:41:33.409Z,1027.50
2019-02-15T08:42:33.395Z,1027.47
2019-02-15T08:43:34.636Z,1027.49
2019-02-15T08:44:33.373Z,1027.48
2019-02-15T08:45:33.372Z,1027.46
2019-02-15T08:46:33.347Z,1027.49
2019-02-15T08:47:33.333Z,1027.40
2019-02-15T08:48:33.342Z,1027.40
2019-02-15T08:49:33.311Z,1027.38
2019-02-15T08:50:33.327Z,1027.37
2019-02-15T08:51:33.292Z,1027.40
2019-02-15T08:52:33.279Z,1027.38
2019-02-15T08:53:33.273Z,1027.38
2019-02-15T08:54:33.272Z,1027.35
2019-02-15T08:55:33.252Z,1027.36
2019-02-15T08:56:33.269Z,1027.39
2019-02-15T08:57:33.225Z,1027.39
2019-02-15T08:58:33.230Z,1027.34
2019-02-15T08:59:33.206Z,1027.36
2019-02-15T09:00:33.194Z,1027.36
2019-02-15T09:01:33.205Z,1027.32
2019-02-15T09:02:33.188Z,1027.32
2019-02-15T09:03:33.161Z,1027.28
2019-02-15T09:04:33.149Z,1027.23
2019-02-15T09:05:33.146Z,1027.23
2019-02-15T09:06:33.152Z,1027.29
2019-02-15T09:07:33.125Z,1027.29
2019-02-15T09:08:33.109Z,1027.28
2019-02-15T09:09:33.098Z,1027.24
2019-02-15T09:10:33.084Z,1027.26
2019-02-15T09:11:33.077Z,1027.26
2019-02-15T09:12:33.086Z,1027.26
2019-02-15T09:13:33.101Z,1027.24
2019-02-15T09:14:33.055Z,1027.20
2019-02-15T09:15:33.030Z,1027.22
2019-02-15T09:16:33.021Z,1027.20
2019-02-15T09:17:33.029Z,1027.20
2019-02-15T09:18:32.996Z,1027.14
2019-02-15T09:19:32.985Z,1027.13
2019-02-15T09:20:32.979Z,1027.12
2019-02-15T09:21:32.964Z,1027.15
2019-02-15T09:22:32.974Z,1027.10
2019-02-15T09:23:32.941Z,1027.16
2019-02-15T09:24:32.930Z,1027.13
2019-02-15T09:25:32.923Z,1027.16
2019-02-15T09:26:32.916Z,1027.13
2019-02-15T09:27:32.919Z,1027.13
2019-02-15T09:28:32.894Z,1027.15
2019-02-15T09:29:32.879Z,1027.20
2019-02-15T09:30:32.884Z,1027.15
2019-02-15T09:31:32.855Z,1027.07
2019-02-15T09:32:32.849Z,1027.18
2019-02-15T09:33:32.860Z,1027.12
2019-02-15T09:34:33.154Z,1027.12
2019-02-15T09:35:32.818Z,1027.13
2019-02-15T09:36:32.803Z,1027.12
2019-02-15T09:37:32.791Z,1027.12
2019-02-15T09:38:32.802Z,1027.11
2019-02-15T09:39:32.771Z,1027.11
2019-02-15T09:40:32.759Z,1027.08
2019-02-15T09:41:32.772Z,1027.11
2019-02-15T09:42:32.783Z,1027.11
2019-02-15T09:43:32.742Z,1027.04
2019-02-15T09:44:32.719Z,1027.04
2019-02-15T09:45:33.070Z,1027.05
2019-02-15T09:46:32.695Z,1026.98
2019-02-15T09:47:32.693Z,1027.01
2019-02-15T09:48:32.726Z,1026.99
2019-02-15T09:49:32.698Z,1027.00
2019-02-15T09:50:32.652Z,1026.99
2019-02-15T09:51:32.648Z,1026.97
2019-02-15T09:52:32.628Z,1026.98
2019-02-15T09:53:32.636Z,1026.98
2019-02-15T09:54:32.611Z,1026.96
2019-02-15T09:55:32.642Z,1026.98
2019-02-15T09:56:32.585Z,1026.99
2019-02-15T09:57:32.590Z,1026.99
2019-02-15T09:58:32.580Z,1026.97
2019-02-15T09:59:32.552Z,1026.99
2019-02-15T10:00:32.543Z,1026.99
2019-02-15T10:01:32.531Z,1026.98
2019-02-15T10:02:32.527Z,1026.93
2019-02-15T10:03:32.536Z,1026.96
2019-02-15T10:04:32.514Z,1026.97
2019-02-15T10:05:32.488Z,1026.97
2019-02-15T10:06:32.479Z,1026.94
2019-02-15T10:07:32.465Z,1026.93
2019-02-15T10:08:32.479Z,1026.94
2019-02-15T10:09:32.442Z,1026.90
2019-02-15T10:10:32.431Z,1026.95
2019-02-15T10:11:32.424Z,1026.92
2019-02-15T10:12:32.412Z,1026.92
2019-02-15T10:13:32.422Z,1026.90
2019-02-15T10:14:32.397Z,1026.92
2019-02-15T10:15:32.378Z,1026.94
2019-02-15T10:16:32.379Z,1026.91
2019-02-15T10:17:32.355Z,1026.92
2019-02-15T10:18:32.347Z,1026.88
2019-02-15T10:19:32.358Z,1026.88
2019-02-15T10:20:32.320Z,1026.90
2019-02-15T10:21:32.324Z,1026.90
2019-02-15T10:22:32.303Z,1026.93
2019-02-15T10:23:32.295Z,1026.91
2019-02-15T10:24:32.297Z,1026.91
2019-02-15T10:25:32.270Z,1026.91
2019-02-15T10:26:32.277Z,1026.84
2019-02-15T10:27:32.252Z,1026.88
2019-02-15T10:28:32.236Z,1026.91
2019-02-15T10:29:32.249Z,1026.89
2019-02-15T10:30:32.224Z,1026.88
2019-02-15T10:31:32.204Z,1026.87
2019-02-15T10:32:32.194Z,1026.88
2019-02-15T10:33:32.181Z,1026.87
2019-02-15T10:34:32.172Z,1026.89
2019-02-15T10:35:32.181Z,1026.92
2019-02-15T10:36:32.153Z,1026.88
2019-02-15T10:37:32.136Z,1026.93
2019-02-15T10:38:32.126Z,1026.96
2019-02-15T10:39:33.019Z,1026.88
2019-02-15T10:40:32.129Z,1026.87
2019-02-15T10:41:32.091Z,1026.84
2019-02-15T10:42:32.091Z,1026.90
2019-02-15T10:43:32.079Z,1026.86
2019-02-15T10:44:32.062Z,1026.85
2019-02-15T10:45:32.090Z,1026.82
2019-02-15T10:46:37.652Z,1026.83
2019-02-15T10:47:33.032Z,1026.84
2019-02-15T10:48:32.025Z,1026.77
2019-02-15T10:49:32.008Z,1026.84
2019-02-15T10:50:31.994Z,1026.77
2019-02-15T10:51:32.002Z,1026.75
2019-02-15T10:52:31.977Z,1026.76
2019-02-15T10:53:31.985Z,1026.74
2019-02-15T10:54:31.956Z,1026.76
2019-02-15T10:55:31.956Z,1026.74
2019-02-15T10:56:31.950Z,1026.65
2019-02-15T10:57:31.927Z,1026.73
2019-02-15T10:58:31.909Z,1026.65
2019-02-15T10:59:31.904Z,1026.67
2019-02-15T11:00:31.916Z,1026.65
2019-02-15T11:01:31.895Z,1026.64
2019-02-15T11:02:31.871Z,1026.67
2019-02-15T11:03:31.865Z,1026.65
2019-02-15T11:04:31.859Z,1026.67
2019-02-15T11:05:31.848Z,1026.66
2019-02-15T11:06:31.840Z,1026.64
2019-02-15T11:07:31.824Z,1026.64
2019-02-15T11:08:31.801Z,1026.59
2019-02-15T11:09:31.788Z,1026.58
2019-02-15T11:10:31.968Z,1026.58
2019-02-15T11:12:41.226Z,1026.53
2019-02-15T11:13:41.205Z,1026.51
2019-02-15T11:14:41.190Z,1026.49
2019-02-15T11:15:41.201Z,1026.48
2019-02-15T11:16:46.970Z,1026.47
2019-02-15T11:17:42.197Z,1026.50
2019-02-15T11:18:41.147Z,1026.50
2019-02-15T11:19:41.137Z,1026.52
2019-02-15T11:20:41.130Z,1026.48
2019-02-15T11:21:41.145Z,1026.49
2019-02-15T11:22:41.124Z,1026.46
2019-02-15T11:23:41.093Z,1026.42
2019-02-15T11:24:41.092Z,1026.45
2019-02-15T11:25:41.077Z,1026.37
2019-02-15T11:26:41.108Z,1026.37
2019-02-15T11:27:41.052Z,1026.39
2019-02-15T11:28:41.048Z,1026.38
2019-02-15T11:29:41.032Z,1026.34
2019-02-15T11:30:41.037Z,1026.39
2019-02-15T11:31:41.045Z,1026.40
2019-02-15T11:32:41.002Z,1026.37
2019-02-15T11:33:40.987Z,1026.31
2019-02-15T11:34:40.989Z,1026.35
2019-02-15T11:35:40.977Z,1026.36
2019-02-15T11:36:40.962Z,1026.35
2019-02-15T11:37:40.967Z,1026.38
2019-02-15T11:38:40.930Z,1026.27
2019-02-15T11:39:40.930Z,1026.30
2019-02-15T11:40:40.942Z,1026.27
2019-02-15T11:41:40.898Z,1026.23
2019-02-15T11:42:40.923Z,1026.20
2019-02-15T11:43:40.884Z,1026.20
2019-02-15T11:44:40.894Z,1026.15
2019-02-15T11:45:40.880Z,1026.16
2019-02-15T11:46:40.848Z,1026.15
2019-02-15T11:47:40.855Z,1026.14
2019-02-15T11:48:40.824Z,1026.10
2019-02-15T11:49:40.813Z,1026.10
2019-02-15T11:50:40.802Z,1026.11
2019-02-15T11:51:40.797Z,1026.05
2019-02-15T11:52:40.801Z,1026.07
2019-02-15T11:53:40.793Z,1025.99
2019-02-15T11:54:40.760Z,1025.99
2019-02-15T11:55:40.747Z,1025.97
2019-02-15T11:56:40.741Z,1026.00
2019-02-15T11:57:40.736Z,1025.94
2019-02-15T11:58:40.731Z,1025.95
2019-02-15T11:59:40.747Z,1025.97
2019-02-15T12:00:40.698Z,1025.90
2019-02-15T12:01:40.682Z,1025.93
2019-02-15T12:02:40.668Z,1025.88
2019-02-15T12:03:40.684Z,1025.87
2019-02-15T12:04:40.650Z,1025.92
2019-02-15T12:05:40.641Z,1025.90
2019-02-15T12:06:40.635Z,1025.91